createdAt,value
2023-01-25T00:02:17.500Z,102186.22
2023-01-25T00:05:20.205Z,102178.31
2023-01-25T00:08:25.697Z,102180.31
2023-01-25T00:11:29.902Z,102180.38
2023-01-25T00:14:38.887Z,102180.31
2023-01-25T00:17:41.687Z,102179.44
2023-01-25T00:20:46.818Z,102173.16
2023-01-25T00:23:52.454Z,102170.47
2023-01-25T00:26:56.499Z,102160.59
2023-01-25T00:30:02.313Z,102158.81
2023-01-25T00:33:30.228Z,102151.56
2023-01-25T00:36:41.305Z,102157.00
2023-01-25T00:43:07.988Z,102153.41
2023-01-25T00:46:11.203Z,102151.53
2023-01-25T00:49:21.277Z,102153.84
2023-01-25T00:52:23.939Z,102156.41
2023-01-25T00:55:27.475Z,102160.81
2023-01-25T00:58:33.697Z,102150.97
2023-01-25T01:01:36.751Z,102160.91
2023-01-25T01:04:39.524Z,102144.03
2023-01-25T01:07:42.299Z,102147.63
2023-01-25T01:10:48.006Z,102141.31
2023-01-25T01:13:53.296Z,102138.53
2023-01-25T01:16:58.015Z,102141.22
2023-01-25T01:20:02.529Z,102146.66
2023-01-25T01:23:05.261Z,102140.50
2023-01-25T01:26:12.362Z,102133.47
2023-01-25T01:29:16.445Z,102133.50
2023-01-25T01:32:21.518Z,102129.00
2023-01-25T01:35:24.276Z,102126.31
2023-01-25T01:38:29.255Z,102130.66
2023-01-25T01:41:34.770Z,102137.81
2023-01-25T01:44:48.176Z,102142.22
2023-01-25T01:47:51.084Z,102138.59
2023-01-25T01:50:57.856Z,102133.31
2023-01-25T01:54:06.844Z,102127.91
2023-01-25T01:57:14.443Z,102131.44
2023-01-25T02:00:22.234Z,102128.66
2023-01-25T02:03:25.581Z,102129.41
2023-01-25T02:06:39.125Z,102131.16
2023-01-25T02:09:42.531Z,102123.03
2023-01-25T02:12:45.667Z,102116.88
2023-01-25T02:15:51.814Z,102102.34
2023-01-25T02:18:57.667Z,102108.84
2023-01-25T02:22:07.635Z,102108.84
2023-01-25T02:25:13.584Z,102106.94
2023-01-25T02:28:20.555Z,102118.34
2023-01-25T02:31:26.268Z,102118.34
2023-01-25T02:34:29.007Z,102125.47
2023-01-25T02:37:31.744Z,102124.50
2023-01-25T02:40:42.024Z,102120.03
2023-01-25T02:43:44.948Z,102115.63
2023-01-25T02:46:47.933Z,102110.41
2023-01-25T02:49:52.481Z,102115.03
2023-01-25T02:52:55.321Z,102106.06
2023-01-25T02:56:03.038Z,102115.78
2023-01-25T02:59:05.876Z,102110.44
2023-01-25T03:02:08.635Z,102106.03
2023-01-25T03:05:11.764Z,102093.66
2023-01-25T03:08:15.004Z,102102.56
2023-01-25T03:11:19.042Z,102111.31
2023-01-25T03:14:21.789Z,102101.41
2023-01-25T03:17:26.191Z,102091.03
2023-01-25T03:20:34.916Z,102091.22
2023-01-25T03:23:37.731Z,102086.81
2023-01-25T03:26:55.757Z,102082.13
2023-01-25T03:29:58.508Z,102086.63
2023-01-25T03:33:01.192Z,102080.28
2023-01-25T03:36:06.144Z,102075.72
2023-01-25T03:39:09.198Z,102080.22
2023-01-25T03:42:13.304Z,102081.72
2023-01-25T03:45:16.020Z,102080.13
2023-01-25T03:48:18.755Z,102072.38
2023-01-25T03:51:21.453Z,102082.88
2023-01-25T03:54:24.374Z,102086.22
2023-01-25T03:57:28.451Z,102079.94
2023-01-25T04:00:31.159Z,102074.56
2023-01-25T04:03:35.199Z,102070.22
2023-01-25T04:06:37.895Z,102067.75
2023-01-25T04:09:40.643Z,102073.19
2023-01-25T04:12:44.713Z,102070.63
2023-01-25T04:15:47.505Z,102055.25
2023-01-25T04:18:50.275Z,102062.38
2023-01-25T04:21:55.088Z,102065.88
2023-01-25T04:24:57.951Z,102065.03
2023-01-25T04:28:02.088Z,102058.72
2023-01-25T04:31:06.192Z,102066.88
2023-01-25T04:34:08.887Z,102056.38
2023-01-25T04:37:11.678Z,102049.13
2023-01-25T04:40:14.429Z,102041.22
2023-01-25T04:43:19.423Z,102048.13
2023-01-25T04:46:22.173Z,102040.84
2023-01-25T04:49:24.877Z,102043.50
2023-01-25T04:52:27.737Z,102047.88
2023-01-25T04:55:33.352Z,102052.03
2023-01-25T04:58:38.034Z,102045.81
2023-01-25T05:01:40.805Z,102035.97
2023-01-25T05:04:43.624Z,102031.53
2023-01-25T05:07:46.331Z,102021.13
2023-01-25T05:10:48.994Z,102026.50
2023-01-25T05:13:54.656Z,102017.91
2023-01-25T05:16:57.362Z,102010.84
2023-01-25T05:20:00.137Z,102002.47
2023-01-25T05:23:03.240Z,102013.66
2023-01-25T05:26:23.929Z,102000.47
2023-01-25T05:29:28.560Z,101993.47
2023-01-25T05:32:31.275Z,101992.47
2023-01-25T05:35:34.018Z,101991.50
2023-01-25T05:38:36.665Z,101998.78
2023-01-25T05:41:39.396Z,101997.13
2023-01-25T05:44:46.115Z,101985.34
2023-01-25T05:47:54.098Z,101997.03
2023-01-25T05:50:58.618Z,101995.94
2023-01-25T05:54:01.302Z,101991.44
2023-01-25T05:57:04.110Z,102002.34
2023-01-25T06:00:10.288Z,101994.91
2023-01-25T06:03:13.104Z,101998.53
2023-01-25T06:06:15.879Z,101995.44
2023-01-25T06:09:18.535Z,101984.66
2023-01-25T06:12:21.598Z,101986.41
2023-01-25T06:15:25.951Z,101984.69
2023-01-25T06:18:31.652Z,101993.25
2023-01-25T06:21:35.193Z,101985.41
2023-01-25T06:24:37.936Z,101992.25
2023-01-25T06:27:40.608Z,101987.88
2023-01-25T06:30:44.671Z,101983.66
2023-01-25T06:33:50.256Z,101974.72
2023-01-25T06:36:55.199Z,101977.41
2023-01-25T06:40:07.453Z,101977.53
2023-01-25T06:43:11.710Z,101976.38
2023-01-25T06:46:15.795Z,101980.56
2023-01-25T06:49:18.447Z,101982.56
2023-01-25T06:52:21.116Z,101977.13
2023-01-25T06:55:24.072Z,101987.88
2023-01-25T06:58:30.854Z,101983.59
2023-01-25T07:01:35.272Z,101981.75
2023-01-25T07:04:38.104Z,101982.63
2023-01-25T07:07:40.750Z,101986.09
2023-01-25T07:10:43.607Z,101985.34
2023-01-25T07:13:48.010Z,101982.56
2023-01-25T07:16:52.106Z,101993.25
2023-01-25T07:20:00.117Z,101990.66
2023-01-25T07:23:06.877Z,101989.03
2023-01-25T07:26:18.619Z,101991.59
2023-01-25T07:29:21.749Z,101996.94
2023-01-25T07:32:28.940Z,101985.47
2023-01-25T07:35:32.396Z,101981.13
2023-01-25T07:38:36.373Z,101986.34
2023-01-25T07:41:39.474Z,101983.66
2023-01-25T07:44:45.406Z,101981.78
2023-01-25T07:47:49.447Z,101979.97
2023-01-25T07:51:11.825Z,101971.31
2023-01-25T07:54:16.878Z,101980.34
2023-01-25T07:57:29.423Z,101977.66
2023-01-25T08:00:32.103Z,101973.16
2023-01-25T08:03:36.565Z,101968.69
2023-01-25T08:06:39.879Z,101979.31
2023-01-25T08:09:43.063Z,101964.19
2023-01-25T08:12:47.206Z,101980.25
2023-01-25T08:15:56.785Z,101972.38
2023-01-25T08:19:03.156Z,101970.50
2023-01-25T08:22:08.256Z,101972.97
2023-01-25T08:25:11.514Z,101973.88
2023-01-25T08:28:14.312Z,101979.97
2023-01-25T08:31:21.744Z,101975.56
2023-01-25T08:34:32.368Z,101970.34
2023-01-25T08:37:35.063Z,101944.22
2023-01-25T08:40:38.610Z,101969.53
2023-01-25T08:43:41.484Z,101961.53
2023-01-25T08:46:45.006Z,101963.47
2023-01-25T08:49:49.029Z,101961.69
2023-01-25T08:52:52.776Z,101952.84
2023-01-25T08:55:57.824Z,101947.31
2023-01-25T08:59:02.224Z,101937.59
2023-01-25T09:02:04.890Z,101942.16
2023-01-25T09:05:09.808Z,101940.41
2023-01-25T09:08:12.631Z,101942.31
2023-01-25T09:11:17.889Z,101933.44
2023-01-25T09:14:20.549Z,101933.47
2023-01-25T09:17:41.687Z,101928.06
2023-01-25T09:20:45.761Z,101926.25
2023-01-25T09:24:09.104Z,101919.91
2023-01-25T09:27:12.338Z,101930.53
2023-01-25T09:30:18.696Z,101932.41
2023-01-25T09:33:21.986Z,101926.25
2023-01-25T09:36:26.174Z,101928.16
2023-01-25T09:39:28.885Z,101919.47
2023-01-25T09:42:45.820Z,101921.16
2023-01-25T09:45:51.183Z,101915.00
2023-01-25T09:49:08.100Z,101927.38
2023-01-25T09:52:35.300Z,101925.59
2023-01-25T09:55:53.059Z,101922.72
2023-01-25T09:58:59.531Z,101926.31
2023-01-25T10:02:06.327Z,101925.66
2023-01-25T10:05:16.745Z,101921.06
2023-01-25T10:08:28.217Z,101923.84
2023-01-25T10:11:32.977Z,101922.84
2023-01-25T10:14:35.747Z,101920.97
2023-01-25T10:17:55.424Z,101919.25
2023-01-25T10:21:01.369Z,101910.38
2023-01-25T10:24:33.642Z,101922.94
2023-01-25T10:27:55.566Z,101899.84
2023-01-25T10:31:02.061Z,101897.94
2023-01-25T10:34:18.402Z,101892.53
2023-01-25T10:37:26.131Z,101888.97
2023-01-25T10:40:36.526Z,101882.66
2023-01-25T10:43:40.220Z,101880.00
2023-01-25T10:46:51.142Z,101876.56
2023-01-25T10:49:56.851Z,101869.47
2023-01-25T10:53:07.426Z,101859.69
2023-01-25T10:56:31.246Z,101859.84
2023-01-25T10:59:37.712Z,101846.47
2023-01-25T11:02:46.489Z,101832.31
2023-01-25T11:05:54.714Z,101835.75
2023-01-25T11:08:58.892Z,101824.22
2023-01-25T11:12:04.758Z,101828.78
2023-01-25T11:15:26.681Z,101814.47
2023-01-25T11:18:33.786Z,101802.97
2023-01-25T11:21:36.581Z,101794.97
2023-01-25T11:24:42.864Z,101790.50
2023-01-25T11:27:46.845Z,101793.97
2023-01-25T11:30:50.936Z,101797.56
2023-01-25T11:33:55.659Z,101790.44
2023-01-25T11:37:29.781Z,101780.59
2023-01-25T11:40:48.422Z,101784.09
2023-01-25T11:44:21.742Z,101769.78
2023-01-25T11:47:43.346Z,101752.75
2023-01-25T11:50:50.298Z,101760.66
2023-01-25T11:54:13.911Z,101728.50
2023-01-25T11:57:55.551Z,101749.13
2023-01-25T12:01:12.923Z,101732.38
2023-01-25T12:04:41.961Z,101720.84
2023-01-25T12:08:05.725Z,101712.84
2023-01-25T12:11:17.395Z,101703.97
2023-01-25T12:14:37.287Z,101695.91
2023-01-25T12:17:58.093Z,101691.44
2023-01-25T12:21:13.380Z,101690.63
2023-01-25T12:24:36.532Z,101687.06
2023-01-25T12:27:52.042Z,101674.56
2023-01-25T12:30:59.800Z,101674.56
2023-01-25T12:34:08.590Z,101659.34
2023-01-25T12:37:17.824Z,101651.31
2023-01-25T12:40:41.957Z,101647.72
2023-01-25T12:44:05.064Z,101638.78
2023-01-25T12:47:15.902Z,101625.47
2023-01-25T12:50:30.464Z,101627.25
2023-01-25T12:53:39.341Z,101622.66
2023-01-25T12:56:48.131Z,101598.59
2023-01-25T13:00:09.710Z,101595.94
2023-01-25T13:03:28.368Z,101595.94
2023-01-25T13:06:43.223Z,101601.25
2023-01-25T13:10:04.635Z,101601.25
2023-01-25T13:13:23.632Z,101594.06
2023-01-25T13:16:43.247Z,101588.72
2023-01-25T13:19:45.924Z,101592.28
2023-01-25T13:22:59.534Z,101585.13
2023-01-25T13:26:38.445Z,101592.28
2023-01-25T13:29:47.113Z,101588.72
2023-01-25T13:33:02.162Z,101573.56
2023-01-25T13:36:38.434Z,101575.28
2023-01-25T13:39:45.113Z,101586.03
2023-01-25T13:43:00.528Z,101571.78
2023-01-25T13:46:07.598Z,101569.97
2023-01-25T13:49:22.095Z,101558.38
2023-01-25T13:52:26.979Z,101537.78
2023-01-25T13:55:39.582Z,101549.47
2023-01-25T13:58:48.140Z,101546.84
2023-01-25T14:01:54.785Z,101537.88
2023-01-25T14:04:59.197Z,101524.53
2023-01-25T14:08:02.167Z,101521.81
2023-01-25T14:11:09.194Z,101513.81
2023-01-25T14:14:21.877Z,101512.91
2023-01-25T14:17:24.874Z,101514.72
2023-01-25T14:20:27.798Z,101507.59
2023-01-25T14:23:32.612Z,101500.47
2023-01-25T14:26:41.955Z,101498.66
2023-01-25T14:29:49.346Z,101492.41
2023-01-25T14:32:54.835Z,101473.66
2023-01-25T14:36:24.171Z,101480.78
2023-01-25T14:39:30.526Z,101480.78
2023-01-25T14:42:34.961Z,101482.53
2023-01-25T14:45:38.842Z,101476.28
2023-01-25T14:48:45.430Z,101476.28
2023-01-25T14:51:50.426Z,101471.84
2023-01-25T14:54:56.057Z,101471.81
2023-01-25T14:58:02.555Z,101481.66
2023-01-25T15:01:05.771Z,101473.63
2023-01-25T15:04:14.555Z,101470.97
2023-01-25T15:07:34.376Z,101462.91
2023-01-25T15:10:38.248Z,101464.69
2023-01-25T15:13:42.343Z,101454.00
2023-01-25T15:16:45.373Z,101457.50
2023-01-25T15:19:53.798Z,101441.44
2023-01-25T15:22:58.811Z,101447.69
2023-01-25T15:26:03.796Z,101428.91
2023-01-25T15:29:14.750Z,101443.19
2023-01-25T15:32:21.406Z,101437.88
2023-01-25T15:35:24.186Z,101428.94
2023-01-25T15:38:37.580Z,101428.88
2023-01-25T15:41:40.962Z,101428.84
2023-01-25T15:44:45.005Z,101426.19
2023-01-25T15:47:47.841Z,101425.34
2023-01-25T15:50:55.475Z,101424.44
2023-01-25T15:53:58.180Z,101428.00
2023-01-25T15:57:01.442Z,101430.63
2023-01-25T16:00:06.742Z,101430.59
2023-01-25T16:03:09.477Z,101418.16
2023-01-25T16:06:26.035Z,101430.66
2023-01-25T16:09:33.203Z,101416.38
2023-01-25T16:12:36.595Z,101421.75
2023-01-25T16:15:42.180Z,101411.06
2023-01-25T16:18:45.008Z,101409.28
2023-01-25T16:21:47.787Z,101411.09
2023-01-25T16:24:50.458Z,101404.84
2023-01-25T16:27:55.028Z,101413.75
2023-01-25T16:31:01.694Z,101411.09
2023-01-25T16:34:04.571Z,101410.22
2023-01-25T16:37:07.245Z,101403.97
2023-01-25T16:40:24.746Z,101378.03
2023-01-25T16:43:42.104Z,101394.13
2023-01-25T16:46:48.950Z,101400.38
2023-01-25T16:49:51.653Z,101393.22
2023-01-25T16:52:57.276Z,101394.09
2023-01-25T16:56:00.176Z,101401.25
2023-01-25T16:59:07.156Z,101396.81
2023-01-25T17:02:13.577Z,101392.31
2023-01-25T17:05:16.437Z,101378.97
2023-01-25T17:08:19.098Z,101377.16
2023-01-25T17:11:22.752Z,101380.75
2023-01-25T17:14:25.448Z,101372.72
2023-01-25T17:17:31.108Z,101381.63
2023-01-25T17:20:34.093Z,101369.16
2023-01-25T17:23:38.145Z,101366.47
2023-01-25T17:26:41.325Z,101361.13
2023-01-25T17:29:44.049Z,101367.38
2023-01-25T17:32:48.292Z,101367.34
2023-01-25T17:35:51.158Z,101354.84
2023-01-25T17:38:54.056Z,101353.97
2023-01-25T17:41:56.749Z,101345.94
2023-01-25T17:44:59.456Z,101342.38
2023-01-25T17:48:03.517Z,101335.22
2023-01-25T17:51:06.709Z,101304.84
2023-01-25T17:54:10.766Z,101335.22
2023-01-25T17:57:13.439Z,101322.75
2023-01-25T18:00:17.658Z,101322.72
2023-01-25T18:03:21.701Z,101321.81
2023-01-25T18:06:26.517Z,101325.41
2023-01-25T18:09:31.671Z,101320.91
2023-01-25T18:12:34.636Z,101309.31
2023-01-25T18:15:37.322Z,101313.75
2023-01-25T18:18:43.503Z,101296.81
2023-01-25T18:21:46.593Z,101312.88
2023-01-25T18:24:49.348Z,101310.19
2023-01-25T18:27:51.994Z,101309.31
2023-01-25T18:30:59.577Z,101308.38
2023-01-25T18:34:05.075Z,101314.63
2023-01-25T18:37:20.313Z,101312.84
2023-01-25T18:40:25.705Z,101307.50
2023-01-25T18:43:31.234Z,101307.47
2023-01-25T18:46:33.997Z,101296.78
2023-01-25T18:49:38.053Z,101295.00
2023-01-25T18:52:40.880Z,101296.78
2023-01-25T18:55:43.626Z,101288.75
2023-01-25T18:58:47.065Z,101284.31
2023-01-25T19:01:57.222Z,101274.44
2023-01-25T19:05:03.695Z,101274.44
2023-01-25T19:08:06.661Z,101273.53
2023-01-25T19:11:12.008Z,101271.75
2023-01-25T19:14:14.761Z,101280.72
2023-01-25T19:17:19.862Z,101269.09
2023-01-25T19:20:30.204Z,101266.41
2023-01-25T19:23:34.282Z,101269.09
2023-01-25T19:26:37.059Z,101268.19
2023-01-25T19:29:42.401Z,101266.38
2023-01-25T19:32:45.195Z,101262.81
2023-01-25T19:35:49.748Z,101263.75
2023-01-25T19:38:52.631Z,101265.53
2023-01-25T19:41:55.582Z,101255.75
2023-01-25T19:45:12.331Z,101257.53
2023-01-25T19:48:17.493Z,101257.50
2023-01-25T19:51:23.277Z,101247.69
2023-01-25T19:54:28.177Z,101242.38
2023-01-25T19:57:33.998Z,101241.47
2023-01-25T20:00:36.791Z,101234.34
2023-01-25T20:03:46.416Z,101218.31
2023-01-25T20:06:51.733Z,101217.41
2023-01-25T20:09:54.568Z,101211.19
2023-01-25T20:13:00.541Z,101214.72
2023-01-25T20:16:03.832Z,101220.06
2023-01-25T20:19:08.133Z,101216.50
2023-01-25T20:22:12.581Z,101216.50
2023-01-25T20:25:16.395Z,101210.25
2023-01-25T20:28:19.231Z,101208.47
2023-01-25T20:31:25.873Z,101200.47
2023-01-25T20:34:28.712Z,101187.97
2023-01-25T20:37:32.840Z,101181.72
2023-01-25T20:40:35.512Z,101198.66
2023-01-25T20:43:38.564Z,101186.19
2023-01-25T20:46:42.897Z,101175.47
2023-01-25T20:49:45.681Z,101179.03
2023-01-25T20:52:53.259Z,101173.69
2023-01-25T20:55:56.777Z,101174.59
2023-01-25T20:58:59.585Z,101162.13
2023-01-25T21:02:02.612Z,101154.97
2023-01-25T21:05:09.580Z,101150.53
2023-01-25T21:08:14.316Z,101145.16
2023-01-25T21:11:17.459Z,101136.25
2023-01-25T21:14:20.252Z,101129.09
2023-01-25T21:17:26.124Z,101126.44
2023-01-25T21:20:36.774Z,101132.69
2023-01-25T21:23:48.613Z,101138.03
2023-01-25T21:26:51.409Z,101102.38
2023-01-25T21:29:54.123Z,101133.56
2023-01-25T21:33:21.983Z,101133.59
2023-01-25T21:36:24.894Z,101134.47
2023-01-25T21:39:29.009Z,101133.59
2023-01-25T21:42:32.503Z,101137.16
2023-01-25T21:45:56.349Z,101145.16
2023-01-25T21:49:18.100Z,101136.25
2023-01-25T21:52:21.017Z,101132.69
2023-01-25T21:55:25.185Z,101136.25
2023-01-25T21:58:28.002Z,101132.69
2023-01-25T22:01:30.783Z,101139.81
2023-01-25T22:04:36.373Z,101138.06
2023-01-25T22:07:42.697Z,101125.56
2023-01-25T22:10:46.732Z,101127.34
2023-01-25T22:13:49.444Z,101136.25
2023-01-25T22:16:52.618Z,101131.78
2023-01-25T22:19:56.286Z,101130.91
2023-01-25T22:23:02.088Z,101138.03
2023-01-25T22:26:11.193Z,101131.78
2023-01-25T22:29:15.000Z,101121.09
2023-01-25T22:32:19.306Z,101111.28
2023-01-25T22:35:21.991Z,101116.63
2023-01-25T22:38:24.805Z,101107.72
2023-01-25T22:41:32.929Z,101105.94
2023-01-25T22:44:36.300Z,101094.31
2023-01-25T22:47:38.993Z,101089.91
2023-01-25T22:50:41.683Z,101081.88
2023-01-25T22:53:47.947Z,101072.97
2023-01-25T22:56:55.657Z,101070.28
2023-01-25T22:59:58.309Z,101064.03
2023-01-25T23:03:01.079Z,101054.25
2023-01-25T23:06:05.579Z,101000.78
2023-01-25T23:09:08.482Z,101033.75
2023-01-25T23:12:12.495Z,101031.97
2023-01-25T23:15:16.363Z,101024.81
2023-01-25T23:18:36.587Z,101023.03
2023-01-25T23:21:42.423Z,101013.22
2023-01-25T23:24:45.108Z,101016.78
2023-01-25T23:27:49.308Z,101013.22
2023-01-25T23:31:11.088Z,101007.88
2023-01-25T23:34:14.850Z,100998.94
2023-01-25T23:37:17.531Z,100986.47
2023-01-25T23:40:23.721Z,100991.84
2023-01-25T23:43:30.259Z,100988.25
2023-01-25T23:46:36.659Z,100990.03
2023-01-25T23:49:44.624Z,100986.47
2023-01-25T23:52:47.290Z,100987.38
2023-01-25T23:55:53.998Z,100975.78
2023-01-25T23:58:58.481Z,100978.44
